KBKD/BKD METAR and TAF weather

Enter ICAO airport designator
Station Type Date Time Source
KBKD METAR 2018/12/12 16:15 UTC NOAA

KBKD 121615Z AUTO 20008KT 10SM CLR 12/07 A2994 RMK AO2 T01190069


Station Type Date Time Source
KBKD Decoded METAR 2018/12/12 16:15 UTC NOAA

Station name not available
Dec 12, 2018 - 11:15 AM EST / 2018.12.12 1615 UTC
Wind: from the SSW (200 degrees) at 9 MPH (8 KT):0
Visibility: 10 mile(s):0
Sky conditions: clear
Temperature: 53.4 F (11.9 C)
Dew Point: 44.4 F (6.9 C)
Relative Humidity: 71%
Pressure (altimeter): 29.94 in. Hg (1013 hPa)
ob: KBKD 121615Z AUTO 20008KT 10SM CLR 12/07 A2994 RMK AO2 T01190069
cycle: 16

Station Type Date Time Source
KBKD TAF UTC NOAA

Error!


Example: see airport list